Nearby METAR Reports

 

KBVO - Bartlesville, Oklahoma, USA
Distance from station: WNW 10mi, 16km
Updated: Tue, 12-Dec-2017 2:53pm CST
Clear
Clear
 Wind from varies
Wind: varies 5 mph , 7 km/h
Temperature: 48°F , 9°C
Wind Chill: 46°F , 8°C
Dew Point: 25°F , -4°C
Humidity: 40%
Barometer: 30.29 inHg , 1025.7 hPa
Clouds: Clear
Visibility: 10 miles , 16 km
2017/12/12 20:53 KBVO 122053Z AUTO VRB04KT 10SM CLR 09/M04 A3029 RMK AO2 SLP255 T00941044 56037
KCFV - Coffeyville, Kansas, USA
Distance from station: NNE 31mi, 49km
Updated: Tue, 12-Dec-2017 2:52pm CST
Clear
Clear
 Wind from W
Wind: W 6 mph , 9 km/h
Temperature: 46°F , 8°C
Wind Chill: 43°F , 6°C
Dew Point: 21°F , -6°C
Humidity: 37%
Barometer: 30.27 inHg , 1025.1 hPa
Clouds: Clear
Visibility: 10 miles , 16 km
2017/12/12 20:52 KCFV 122052Z AUTO 28005KT 10SM CLR 08/M06 A3027 RMK AO2 SLP254 T00781056 56036
 
KIDP - Independence, Kansas, USA
Distance from station: N 32mi, 52km
Updated: Tue, 12-Dec-2017 3:35pm CST
Clear
Clear
 Wind from W
Wind: W 8 mph , 13 km/h
Temperature: 46°F , 8°C
Wind Chill: 42°F , 6°C
Dew Point: 25°F , -4°C
Humidity: 43%
Barometer: 30.25 inHg , 1024.4 hPa
Clouds: Clear
Visibility: 10 miles , 16 km
2017/12/12 21:35 KIDP 122135Z AUTO 27007KT 10SM CLR 08/M04 A3025 RMK AO2 T00821035
KGCM - Claremore, Oklahoma, USA
Distance from station: SE 35mi, 56km
Updated: Tue, 12-Dec-2017 3:35pm CST
Clear
Clear
 Wind from NW
Wind: NW 5 mph , 7 km/h
Temperature: 45°F , 7°C
Wind Chill: 42°F , 6°C
Dew Point: 14°F , -10°C
Humidity: 29%
Barometer: 30.29 inHg , 1025.7 hPa
Clouds: Clear
Visibility: 10 miles , 16 km
2017/12/12 21:35 KGCM 122135Z AUTO 32004KT 10SM CLR 07/M10 A3029 RMK AO2
 
KTUL - Tulsa, Oklahoma, USA
Distance from station: S 35mi, 56km
Updated: Tue, 12-Dec-2017 2:53pm CST
Few Clouds
Few Clouds
 Wind from NW
Wind: NW 7 mph , 11 km/h
Temperature: 48°F , 9°C
Wind Chill: 45°F , 7°C
Dew Point: 18°F , -8°C
Humidity: 29%
Barometer: 30.29 inHg , 1025.7 hPa
Clouds: Few Clouds
Visibility: 10 miles , 16 km
Cloud details: Few Clouds 25000 ft
2017/12/12 20:53 KTUL 122053Z 32006KT 10SM FEW250 09/M08 A3029 RMK AO2 SLP258 T00941078 56033
KRVS - Tulsa, Oklahoma, USA
Distance from station: S 46mi, 74km
Updated: Tue, 12-Dec-2017 2:53pm CST
Clear
Clear
 Wind from varies
Wind: varies 6 mph , 9 km/h
Temperature: 48°F , 9°C
Wind Chill: 45°F , 7°C
Dew Point: 23°F , -5°C
Humidity: 37%
Barometer: 30.29 inHg , 1025.7 hPa
Clouds: Clear
Visibility: 10 miles , 16 km
2017/12/12 20:53 KRVS 122053Z VRB05KT 10SM CLR 09/M05 A3029 RMK AO2 SLP264 T00941050 56034
 
KPPF - Parsons, Kansas, USA
Distance from station: NNE 48mi, 76km
Updated: Tue, 12-Dec-2017 2:52pm CST
Clear
Clear
 Wind from NNW
Wind: NNW 5 mph , 7 km/h
Temperature: 46°F , 8°C
Wind Chill: 44°F , 7°C
Dew Point: 23°F , -5°C
Humidity: 40%
Barometer: 30.27 inHg , 1025.1 hPa
Clouds: Clear
Visibility: 10 miles , 16 km
2017/12/12 20:52 KPPF 122052Z AUTO 33004KT 10SM CLR 08/M05 A3027 RMK AO2 SLP253 T00781050 56035
KGMJ - Grove, Oklahoma, USA
Distance from station: E 63mi, 101km
Updated: Tue, 12-Dec-2017 3:35pm CST
Clear
Clear
 Wind from W
Wind: W 6 mph , 9 km/h
Temperature: 45°F , 7°C
Wind Chill: 42°F , 6°C
Dew Point: 14°F , -10°C
Humidity: 29%
Barometer: 30.27 inHg , 1025.1 hPa
Clouds: Clear
Visibility: 10 miles , 16 km
2017/12/12 21:35 KGMJ 122135Z AUTO 28005KT 10SM CLR 07/M10 A3027 RMK AO2
 
KPNC - Ponca City, Oklahoma, USA
Distance from station: W 69mi, 111km
Updated: Tue, 12-Dec-2017 2:53pm CST
Clear
Clear
 Wind from W
Wind: W 9 mph , 15 km/h
Temperature: 48°F , 9°C
Wind Chill: 44°F , 7°C
Dew Point: 28°F , -2°C
Humidity: 46%
Barometer: 30.27 inHg , 1025.1 hPa
Clouds: Clear
Visibility: 10 miles , 16 km
2017/12/12 20:53 KPNC 122053Z AUTO 27008KT 10SM CLR 09/M02 A3027 RMK AO2 SLP253 T00941022 56040 $
KCNU - Chanute, Kansas, USA
Distance from station: NNE 69mi, 112km
Updated: Tue, 12-Dec-2017 2:52pm CST
Clear
Clear
 Wind from NW
Wind: NW 12 mph , 19 km/h
Temperature: 46°F , 8°C
Wind Chill: 40°F , 4°C
Dew Point: 25°F , -4°C
Humidity: 43%
Barometer: 30.25 inHg , 1024.4 hPa
Clouds: Clear
Visibility: 10 miles , 16 km
2017/12/12 20:52 KCNU 122052Z AUTO 32010KT 10SM CLR 08/M04 A3025 RMK AO2 SLP246 T00831039 56033